sensor_id;sensor_type;location;lat;lon;timestamp;temperature;humidity
29237;DHT22;16266;50.866;4.398;2023-07-13T00:00:25;16.10;99.90
29237;DHT22;16266;50.866;4.398;2023-07-13T00:02:51;16.10;99.90
29237;DHT22;16266;50.866;4.398;2023-07-13T00:05:21;16.10;99.90
29237;DHT22;16266;50.866;4.398;2023-07-13T00:07:48;16.20;99.90
29237;DHT22;16266;50.866;4.398;2023-07-13T00:10:14;16.10;99.90
29237;DHT22;16266;50.866;4.398;2023-07-13T00:12:40;16.10;99.90
29237;DHT22;16266;50.866;4.398;2023-07-13T00:15:16;16.10;99.90
29237;DHT22;16266;50.866;4.398;2023-07-13T00:17:42;16.10;99.90
29237;DHT22;16266;50.866;4.398;2023-07-13T00:20:11;16.00;99.90
29237;DHT22;16266;50.866;4.398;2023-07-13T00:22:37;16.10;99.90
29237;DHT22;16266;50.866;4.398;2023-07-13T00:25:03;16.00;99.90
29237;DHT22;16266;50.866;4.398;2023-07-13T00:27:29;16.00;99.90
29237;DHT22;16266;50.866;4.398;2023-07-13T00:29:57;16.00;99.90
29237;DHT22;16266;50.866;4.398;2023-07-13T00:32:24;16.00;99.90
29237;DHT22;16266;50.866;4.398;2023-07-13T00:34:51;15.90;99.90
29237;DHT22;16266;50.866;4.398;2023-07-13T00:37:17;15.90;99.90
29237;DHT22;16266;50.866;4.398;2023-07-13T00:39:42;15.90;99.90
29237;DHT22;16266;50.866;4.398;2023-07-13T00:42:08;15.90;99.90
29237;DHT22;16266;50.866;4.398;2023-07-13T00:44:34;15.80;99.90
29237;DHT22;16266;50.866;4.398;2023-07-13T00:46:59;15.90;99.90
29237;DHT22;16266;50.866;4.398;2023-07-13T00:49:28;15.80;99.90
29237;DHT22;16266;50.866;4.398;2023-07-13T00:51:59;15.80;99.90
29237;DHT22;16266;50.866;4.398;2023-07-13T00:54:33;15.80;99.90
29237;DHT22;16266;50.866;4.398;2023-07-13T00:57:02;15.80;99.90
29237;DHT22;16266;50.866;4.398;2023-07-13T00:59:28;15.80;99.90
29237;DHT22;16266;50.866;4.398;2023-07-13T01:01:55;15.80;99.90
29237;DHT22;16266;50.866;4.398;2023-07-13T01:04:24;15.70;99.90
29237;DHT22;16266;50.866;4.398;2023-07-13T01:06:50;15.70;99.90
29237;DHT22;16266;50.866;4.398;2023-07-13T01:09:16;15.60;99.90
29237;DHT22;16266;50.866;4.398;2023-07-13T01:11:41;15.70;99.90
29237;DHT22;16266;50.866;4.398;2023-07-13T01:14:08;15.70;99.90
29237;DHT22;16266;50.866;4.398;2023-07-13T01:16:36;15.70;99.90
29237;DHT22;16266;50.866;4.398;2023-07-13T01:19:23;15.70;99.90
29237;DHT22;16266;50.866;4.398;2023-07-13T01:21:52;15.60;99.90
29237;DHT22;16266;50.866;4.398;2023-07-13T01:24:17;15.60;99.90
29237;DHT22;16266;50.866;4.398;2023-07-13T01:26:43;15.60;99.90
29237;DHT22;16266;50.866;4.398;2023-07-13T01:29:09;15.50;99.90
29237;DHT22;16266;50.866;4.398;2023-07-13T01:31:34;15.50;99.90
29237;DHT22;16266;50.866;4.398;2023-07-13T01:34:00;15.60;99.90
29237;DHT22;16266;50.866;4.398;2023-07-13T01:36:26;15.50;99.90
29237;DHT22;16266;50.866;4.398;2023-07-13T01:38:51;15.50;99.90
29237;DHT22;16266;50.866;4.398;2023-07-13T01:41:17;15.50;99.90
29237;DHT22;16266;50.866;4.398;2023-07-13T01:43:43;15.50;99.90
29237;DHT22;16266;50.866;4.398;2023-07-13T01:46:09;15.50;99.90
29237;DHT22;16266;50.866;4.398;2023-07-13T01:48:34;15.50;99.90
29237;DHT22;16266;50.866;4.398;2023-07-13T01:51:00;15.40;99.90
29237;DHT22;16266;50.866;4.398;2023-07-13T01:53:26;15.40;99.90
29237;DHT22;16266;50.866;4.398;2023-07-13T01:55:52;15.40;99.90
29237;DHT22;16266;50.866;4.398;2023-07-13T01:58:17;15.40;99.90
29237;DHT22;16266;50.866;4.398;2023-07-13T02:00:43;15.40;99.90
29237;DHT22;16266;50.866;4.398;2023-07-13T02:03:09;15.40;99.90
29237;DHT22;16266;50.866;4.398;2023-07-13T02:05:35;15.40;99.90
29237;DHT22;16266;50.866;4.398;2023-07-13T02:08:01;15.40;99.90
29237;DHT22;16266;50.866;4.398;2023-07-13T02:10:27;15.40;99.90
29237;DHT22;16266;50.866;4.398;2023-07-13T02:12:53;15.40;99.90
29237;DHT22;16266;50.866;4.398;2023-07-13T02:15:19;15.40;99.90
29237;DHT22;16266;50.866;4.398;2023-07-13T02:17:45;15.40;99.90
29237;DHT22;16266;50.866;4.398;2023-07-13T02:20:10;15.40;99.90
29237;DHT22;16266;50.866;4.398;2023-07-13T02:22:36;15.30;99.90
29237;DHT22;16266;50.866;4.398;2023-07-13T02:25:02;15.30;99.90
29237;DHT22;16266;50.866;4.398;2023-07-13T02:27:28;15.30;99.90
29237;DHT22;16266;50.866;4.398;2023-07-13T02:29:53;15.30;99.90
29237;DHT22;16266;50.866;4.398;2023-07-13T02:32:19;15.30;99.90
29237;DHT22;16266;50.866;4.398;2023-07-13T02:34:45;15.30;99.90
29237;DHT22;16266;50.866;4.398;2023-07-13T02:37:10;15.30;99.90
29237;DHT22;16266;50.866;4.398;2023-07-13T02:39:36;15.30;99.90
29237;DHT22;16266;50.866;4.398;2023-07-13T02:42:01;15.30;99.90
29237;DHT22;16266;50.866;4.398;2023-07-13T02:44:27;15.30;99.90
29237;DHT22;16266;50.866;4.398;2023-07-13T02:46:53;15.30;99.90
29237;DHT22;16266;50.866;4.398;2023-07-13T02:49:18;15.30;99.90
29237;DHT22;16266;50.866;4.398;2023-07-13T02:51:44;15.20;99.90
29237;DHT22;16266;50.866;4.398;2023-07-13T02:54:10;15.20;99.90
29237;DHT22;16266;50.866;4.398;2023-07-13T02:56:37;15.20;99.90
29237;DHT22;16266;50.866;4.398;2023-07-13T02:59:04;15.10;99.90
29237;DHT22;16266;50.866;4.398;2023-07-13T03:01:30;15.20;99.90
29237;DHT22;16266;50.866;4.398;2023-07-13T03:03:59;15.20;99.90
29237;DHT22;16266;50.866;4.398;2023-07-13T03:06:25;15.10;99.90
29237;DHT22;16266;50.866;4.398;2023-07-13T03:08:51;15.10;99.90
29237;DHT22;16266;50.866;4.398;2023-07-13T03:11:18;15.20;99.90
29237;DHT22;16266;50.866;4.398;2023-07-13T03:13:44;15.20;99.90
29237;DHT22;16266;50.866;4.398;2023-07-13T03:16:11;15.20;99.90
29237;DHT22;16266;50.866;4.398;2023-07-13T03:18:37;15.10;99.90
29237;DHT22;16266;50.866;4.398;2023-07-13T03:21:03;15.10;99.90
29237;DHT22;16266;50.866;4.398;2023-07-13T03:23:29;15.10;99.90
29237;DHT22;16266;50.866;4.398;2023-07-13T03:28:32;15.10;99.90
29237;DHT22;16266;50.866;4.398;2023-07-13T03:31:06;15.00;99.90
29237;DHT22;16266;50.866;4.398;2023-07-13T03:33:32;15.10;99.90
29237;DHT22;16266;50.866;4.398;2023-07-13T03:35:58;15.10;99.90
29237;DHT22;16266;50.866;4.398;2023-07-13T03:38:24;15.20;99.90
29237;DHT22;16266;50.866;4.398;2023-07-13T03:40:49;15.20;99.90
29237;DHT22;16266;50.866;4.398;2023-07-13T03:43:15;15.20;99.90
29237;DHT22;16266;50.866;4.398;2023-07-13T03:45:41;15.30;99.90
29237;DHT22;16266;50.866;4.398;2023-07-13T03:48:07;15.40;99.90
29237;DHT22;16266;50.866;4.398;2023-07-13T03:50:32;15.40;99.90
29237;DHT22;16266;50.866;4.398;2023-07-13T03:52:59;15.50;99.90
29237;DHT22;16266;50.866;4.398;2023-07-13T03:55:25;15.70;99.90
29237;DHT22;16266;50.866;4.398;2023-07-13T03:57:58;15.90;99.90
29237;DHT22;16266;50.866;4.398;2023-07-13T04:00:24;16.00;99.90
29237;DHT22;16266;50.866;4.398;2023-07-13T04:02:50;16.00;99.90
29237;DHT22;16266;50.866;4.398;2023-07-13T04:05:15;16.20;99.90
29237;DHT22;16266;50.866;4.398;2023-07-13T04:07:41;16.20;99.90
29237;DHT22;16266;50.866;4.398;2023-07-13T04:10:07;16.30;99.90
29237;DHT22;16266;50.866;4.398;2023-07-13T04:12:33;16.40;99.90
29237;DHT22;16266;50.866;4.398;2023-07-13T04:14:58;16.50;99.90
29237;DHT22;16266;50.866;4.398;2023-07-13T04:17:24;16.60;99.90
29237;DHT22;16266;50.866;4.398;2023-07-13T04:19:50;16.60;99.90
29237;DHT22;16266;50.866;4.398;2023-07-13T04:22:16;16.70;99.90
29237;DHT22;16266;50.866;4.398;2023-07-13T04:24:41;16.60;99.90
29237;DHT22;16266;50.866;4.398;2023-07-13T04:27:07;16.60;99.90
29237;DHT22;16266;50.866;4.398;2023-07-13T04:29:33;16.80;99.90
29237;DHT22;16266;50.866;4.398;2023-07-13T04:31:58;16.70;99.90
29237;DHT22;16266;50.866;4.398;2023-07-13T04:34:24;16.70;99.90
29237;DHT22;16266;50.866;4.398;2023-07-13T04:36:50;16.70;99.90
29237;DHT22;16266;50.866;4.398;2023-07-13T04:39:16;16.70;99.90
29237;DHT22;16266;50.866;4.398;2023-07-13T04:41:42;16.70;99.90
29237;DHT22;16266;50.866;4.398;2023-07-13T04:44:07;16.80;99.90
29237;DHT22;16266;50.866;4.398;2023-07-13T04:46:33;16.80;99.90
29237;DHT22;16266;50.866;4.398;2023-07-13T04:48:59;16.90;99.90
29237;DHT22;16266;50.866;4.398;2023-07-13T04:51:25;16.90;99.90
29237;DHT22;16266;50.866;4.398;2023-07-13T04:53:51;16.90;99.90
29237;DHT22;16266;50.866;4.398;2023-07-13T04:56:17;17.00;99.90
29237;DHT22;16266;50.866;4.398;2023-07-13T04:58:43;17.10;99.90
29237;DHT22;16266;50.866;4.398;2023-07-13T05:01:10;17.10;99.90
29237;DHT22;16266;50.866;4.398;2023-07-13T05:03:35;17.10;99.90
29237;DHT22;16266;50.866;4.398;2023-07-13T05:06:04;17.10;99.90
29237;DHT22;16266;50.866;4.398;2023-07-13T05:08:30;17.10;99.90
29237;DHT22;16266;50.866;4.398;2023-07-13T05:10:56;17.20;99.90
29237;DHT22;16266;50.866;4.398;2023-07-13T05:13:22;17.30;99.90
29237;DHT22;16266;50.866;4.398;2023-07-13T05:16:00;17.30;99.90
29237;DHT22;16266;50.866;4.398;2023-07-13T05:18:26;17.30;99.90
29237;DHT22;16266;50.866;4.398;2023-07-13T05:21:03;17.40;99.90
29237;DHT22;16266;50.866;4.398;2023-07-13T05:23:30;17.50;99.90
29237;DHT22;16266;50.866;4.398;2023-07-13T05:25:56;17.60;99.90
29237;DHT22;16266;50.866;4.398;2023-07-13T05:28:22;17.70;99.90
29237;DHT22;16266;50.866;4.398;2023-07-13T05:30:49;17.80;99.90
29237;DHT22;16266;50.866;4.398;2023-07-13T05:33:15;17.80;99.90
29237;DHT22;16266;50.866;4.398;2023-07-13T05:35:41;17.90;99.90
29237;DHT22;16266;50.866;4.398;2023-07-13T05:38:07;17.90;99.90
29237;DHT22;16266;50.866;4.398;2023-07-13T05:40:33;18.00;99.90
29237;DHT22;16266;50.866;4.398;2023-07-13T05:42:58;18.00;99.90
29237;DHT22;16266;50.866;4.398;2023-07-13T05:45:24;18.00;99.90
29237;DHT22;16266;50.866;4.398;2023-07-13T05:47:51;18.00;99.90
29237;DHT22;16266;50.866;4.398;2023-07-13T05:50:17;18.10;99.90
29237;DHT22;16266;50.866;4.398;2023-07-13T05:52:42;18.20;99.90
29237;DHT22;16266;50.866;4.398;2023-07-13T05:55:08;18.40;99.90
29237;DHT22;16266;50.866;4.398;2023-07-13T05:57:34;18.50;99.90
29237;DHT22;16266;50.866;4.398;2023-07-13T05:59:59;18.60;99.90
29237;DHT22;16266;50.866;4.398;2023-07-13T06:02:25;18.60;99.90
29237;DHT22;16266;50.866;4.398;2023-07-13T06:04:52;18.60;99.90
29237;DHT22;16266;50.866;4.398;2023-07-13T06:07:17;18.70;99.90
29237;DHT22;16266;50.866;4.398;2023-07-13T06:09:43;18.70;99.90
29237;DHT22;16266;50.866;4.398;2023-07-13T06:12:09;18.80;99.90
29237;DHT22;16266;50.866;4.398;2023-07-13T06:14:34;18.90;99.90
29237;DHT22;16266;50.866;4.398;2023-07-13T06:17:00;19.00;99.90
29237;DHT22;16266;50.866;4.398;2023-07-13T06:19:26;19.00;99.90
29237;DHT22;16266;50.866;4.398;2023-07-13T06:21:51;19.20;99.90
29237;DHT22;16266;50.866;4.398;2023-07-13T06:24:17;19.30;99.90
29237;DHT22;16266;50.866;4.398;2023-07-13T06:26:43;19.40;99.90
29237;DHT22;16266;50.866;4.398;2023-07-13T06:29:08;19.60;99.90
29237;DHT22;16266;50.866;4.398;2023-07-13T06:31:34;19.60;99.90
29237;DHT22;16266;50.866;4.398;2023-07-13T06:34:00;20.00;99.90
29237;DHT22;16266;50.866;4.398;2023-07-13T06:36:26;20.10;99.90
29237;DHT22;16266;50.866;4.398;2023-07-13T06:38:53;20.30;99.90
29237;DHT22;16266;50.866;4.398;2023-07-13T06:41:19;20.40;99.90
29237;DHT22;16266;50.866;4.398;2023-07-13T06:43:45;20.80;99.90
29237;DHT22;16266;50.866;4.398;2023-07-13T06:46:11;20.80;99.90
29237;DHT22;16266;50.866;4.398;2023-07-13T06:48:36;21.20;99.90
29237;DHT22;16266;50.866;4.398;2023-07-13T06:51:02;21.30;99.90
29237;DHT22;16266;50.866;4.398;2023-07-13T06:53:28;21.60;99.90
29237;DHT22;16266;50.866;4.398;2023-07-13T06:55:54;21.60;99.90
29237;DHT22;16266;50.866;4.398;2023-07-13T06:58:21;21.90;99.90
29237;DHT22;16266;50.866;4.398;2023-07-13T07:00:50;22.10;99.90
29237;DHT22;16266;50.866;4.398;2023-07-13T07:03:16;22.40;99.90
29237;DHT22;16266;50.866;4.398;2023-07-13T07:05:42;22.60;99.90
29237;DHT22;16266;50.866;4.398;2023-07-13T07:08:08;22.90;99.90
29237;DHT22;16266;50.866;4.398;2023-07-13T07:10:34;23.00;99.90
29237;DHT22;16266;50.866;4.398;2023-07-13T07:12:59;23.10;99.90
29237;DHT22;16266;50.866;4.398;2023-07-13T07:15:26;22.90;99.90
29237;DHT22;16266;50.866;4.398;2023-07-13T07:17:52;22.80;99.90
29237;DHT22;16266;50.866;4.398;2023-07-13T07:20:18;23.00;99.90
29237;DHT22;16266;50.866;4.398;2023-07-13T07:22:44;23.40;99.90
29237;DHT22;16266;50.866;4.398;2023-07-13T07:25:09;23.90;99.90
29237;DHT22;16266;50.866;4.398;2023-07-13T07:27:35;24.20;99.90
29237;DHT22;16266;50.866;4.398;2023-07-13T07:30:00;24.20;99.90
29237;DHT22;16266;50.866;4.398;2023-07-13T07:32:28;24.20;99.90
29237;DHT22;16266;50.866;4.398;2023-07-13T07:34:54;24.70;99.90
29237;DHT22;16266;50.866;4.398;2023-07-13T07:37:19;25.10;99.90
29237;DHT22;16266;50.866;4.398;2023-07-13T07:39:45;25.70;99.90
29237;DHT22;16266;50.866;4.398;2023-07-13T07:42:11;25.90;99.90
29237;DHT22;16266;50.866;4.398;2023-07-13T07:44:40;26.40;99.90
29237;DHT22;16266;50.866;4.398;2023-07-13T07:47:06;27.30;99.90
29237;DHT22;16266;50.866;4.398;2023-07-13T07:49:31;28.70;95.40
29237;DHT22;16266;50.866;4.398;2023-07-13T07:51:57;29.40;90.40
29237;DHT22;16266;50.866;4.398;2023-07-13T07:54:23;30.30;85.40
29237;DHT22;16266;50.866;4.398;2023-07-13T07:56:48;31.70;71.70
29237;DHT22;16266;50.866;4.398;2023-07-13T07:59:14;32.40;62.90
29237;DHT22;16266;50.866;4.398;2023-07-13T08:01:40;32.50;56.00
29237;DHT22;16266;50.866;4.398;2023-07-13T08:04:05;31.80;56.30
29237;DHT22;16266;50.866;4.398;2023-07-13T08:06:34;32.20;56.70
29237;DHT22;16266;50.866;4.398;2023-07-13T08:09:00;32.90;49.90
29237;DHT22;16266;50.866;4.398;2023-07-13T08:11:27;34.10;44.70
29237;DHT22;16266;50.866;4.398;2023-07-13T08:13:53;34.60;42.10
29237;DHT22;16266;50.866;4.398;2023-07-13T08:16:19;34.40;40.00
29237;DHT22;16266;50.866;4.398;2023-07-13T08:18:45;34.30;37.60
29237;DHT22;16266;50.866;4.398;2023-07-13T08:21:10;33.60;39.10
29237;DHT22;16266;50.866;4.398;2023-07-13T08:23:36;32.20;41.70
29237;DHT22;16266;50.866;4.398;2023-07-13T08:26:02;30.90;46.60
29237;DHT22;16266;50.866;4.398;2023-07-13T08:28:28;30.70;48.90
29237;DHT22;16266;50.866;4.398;2023-07-13T08:30:54;29.60;53.60
29237;DHT22;16266;50.866;4.398;2023-07-13T08:33:21;29.40;57.20
29237;DHT22;16266;50.866;4.398;2023-07-13T08:35:50;31.10;50.40
29237;DHT22;16266;50.866;4.398;2023-07-13T08:38:17;31.20;49.60
29237;DHT22;16266;50.866;4.398;2023-07-13T08:40:43;31.10;48.90
29237;DHT22;16266;50.866;4.398;2023-07-13T08:43:16;30.90;49.50
29237;DHT22;16266;50.866;4.398;2023-07-13T08:45:56;30.70;49.20
29237;DHT22;16266;50.866;4.398;2023-07-13T08:48:32;31.00;48.80
29237;DHT22;16266;50.866;4.398;2023-07-13T08:53:52;31.90;46.30
29237;DHT22;16266;50.866;4.398;2023-07-13T08:56:25;33.20;41.10
29237;DHT22;16266;50.866;4.398;2023-07-13T08:58:56;34.30;38.00
29237;DHT22;16266;50.866;4.398;2023-07-13T09:01:30;34.50;35.60
29237;DHT22;16266;50.866;4.398;2023-07-13T09:04:09;35.40;32.40
29237;DHT22;16266;50.866;4.398;2023-07-13T09:12:19;37.40;25.90
29237;DHT22;16266;50.866;4.398;2023-07-13T09:14:53;35.60;26.20
29237;DHT22;16266;50.866;4.398;2023-07-13T09:17:34;34.60;28.00
29237;DHT22;16266;50.866;4.398;2023-07-13T09:22:39;34.20;28.90
29237;DHT22;16266;50.866;4.398;2023-07-13T09:25:31;33.30;30.00
29237;DHT22;16266;50.866;4.398;2023-07-13T09:28:12;33.50;30.40
29237;DHT22;16266;50.866;4.398;2023-07-13T09:33:39;34.60;28.30
29237;DHT22;16266;50.866;4.398;2023-07-13T09:36:34;34.30;28.10
29237;DHT22;16266;50.866;4.398;2023-07-13T09:39:25;33.30;28.50
29237;DHT22;16266;50.866;4.398;2023-07-13T09:42:03;33.00;30.20
29237;DHT22;16266;50.866;4.398;2023-07-13T09:44:37;32.50;31.90
29237;DHT22;16266;50.866;4.398;2023-07-13T09:47:14;31.60;33.60
29237;DHT22;16266;50.866;4.398;2023-07-13T09:49:41;31.20;35.00
29237;DHT22;16266;50.866;4.398;2023-07-13T09:52:12;30.70;35.70
29237;DHT22;16266;50.866;4.398;2023-07-13T09:54:43;30.60;35.80
29237;DHT22;16266;50.866;4.398;2023-07-13T09:57:16;30.70;35.30
29237;DHT22;16266;50.866;4.398;2023-07-13T09:59:51;31.30;34.30
29237;DHT22;16266;50.866;4.398;2023-07-13T10:05:13;33.40;28.70
29237;DHT22;16266;50.866;4.398;2023-07-13T10:07:43;32.80;30.20
29237;DHT22;16266;50.866;4.398;2023-07-13T10:10:21;34.60;28.80
29237;DHT22;16266;50.866;4.398;2023-07-13T10:12:49;35.50;25.60
29237;DHT22;16266;50.866;4.398;2023-07-13T10:15:21;36.50;24.00
29237;DHT22;16266;50.866;4.398;2023-07-13T10:17:47;36.50;23.70
29237;DHT22;16266;50.866;4.398;2023-07-13T10:20:14;36.70;22.30
29237;DHT22;16266;50.866;4.398;2023-07-13T10:22:45;35.60;22.20
29237;DHT22;16266;50.866;4.398;2023-07-13T10:25:20;35.40;23.20
29237;DHT22;16266;50.866;4.398;2023-07-13T10:27:50;35.40;23.20
29237;DHT22;16266;50.866;4.398;2023-07-13T10:30:29;36.40;22.10
29237;DHT22;16266;50.866;4.398;2023-07-13T10:33:02;36.10;21.70
29237;DHT22;16266;50.866;4.398;2023-07-13T10:35:29;35.00;22.40
29237;DHT22;16266;50.866;4.398;2023-07-13T10:40:38;31.50;28.00
29237;DHT22;16266;50.866;4.398;2023-07-13T10:43:20;30.30;29.80
29237;DHT22;16266;50.866;4.398;2023-07-13T10:45:48;29.30;33.70
29237;DHT22;16266;50.866;4.398;2023-07-13T10:48:17;28.90;33.20
29237;DHT22;16266;50.866;4.398;2023-07-13T10:50:45;28.70;35.20
29237;DHT22;16266;50.866;4.398;2023-07-13T10:53:21;28.10;40.90
29237;DHT22;16266;50.866;4.398;2023-07-13T10:58:44;26.50;67.10
29237;DHT22;16266;50.866;4.398;2023-07-13T11:01:15;26.00;76.80
29237;DHT22;16266;50.866;4.398;2023-07-13T11:03:50;26.50;71.60
29237;DHT22;16266;50.866;4.398;2023-07-13T11:08:51;31.40;43.10
29237;DHT22;16266;50.866;4.398;2023-07-13T11:11:34;32.80;36.60
29237;DHT22;16266;50.866;4.398;2023-07-13T11:14:03;32.30;33.50
29237;DHT22;16266;50.866;4.398;2023-07-13T11:16:44;31.60;33.60
29237;DHT22;16266;50.866;4.398;2023-07-13T11:25:00;30.70;35.50
29237;DHT22;16266;50.866;4.398;2023-07-13T11:27:39;32.00;32.30
29237;DHT22;16266;50.866;4.398;2023-07-13T11:33:10;32.20;30.00
29237;DHT22;16266;50.866;4.398;2023-07-13T11:35:45;32.90;29.20
29237;DHT22;16266;50.866;4.398;2023-07-13T11:38:39;32.90;27.10
29237;DHT22;16266;50.866;4.398;2023-07-13T11:41:16;31.70;28.70
29237;DHT22;16266;50.866;4.398;2023-07-13T11:43:44;30.40;30.80
29237;DHT22;16266;50.866;4.398;2023-07-13T11:46:20;29.50;33.80
29237;DHT22;16266;50.866;4.398;2023-07-13T11:48:47;28.40;36.60
29237;DHT22;16266;50.866;4.398;2023-07-13T11:51:28;27.70;41.30
29237;DHT22;16266;50.866;4.398;2023-07-13T11:54:03;26.90;47.00
29237;DHT22;16266;50.866;4.398;2023-07-13T11:56:30;25.70;70.90
29237;DHT22;16266;50.866;4.398;2023-07-13T11:59:02;24.80;81.60
29237;DHT22;16266;50.866;4.398;2023-07-13T12:01:31;24.60;90.50
29237;DHT22;16266;50.866;4.398;2023-07-13T12:04:01;24.70;84.50
29237;DHT22;16266;50.866;4.398;2023-07-13T12:06:33;24.90;79.80
29237;DHT22;16266;50.866;4.398;2023-07-13T12:09:03;24.90;78.80
29237;DHT22;16266;50.866;4.398;2023-07-13T12:11:30;25.00;75.80
29237;DHT22;16266;50.866;4.398;2023-07-13T12:13:55;25.20;72.20
29237;DHT22;16266;50.866;4.398;2023-07-13T12:18:48;25.20;71.00
29237;DHT22;16266;50.866;4.398;2023-07-13T12:21:17;25.10;71.10
29237;DHT22;16266;50.866;4.398;2023-07-13T12:23:44;25.20;69.00
29237;DHT22;16266;50.866;4.398;2023-07-13T12:26:13;25.50;68.40
29237;DHT22;16266;50.866;4.398;2023-07-13T12:28:52;25.50;69.00
29237;DHT22;16266;50.866;4.398;2023-07-13T12:31:26;25.20;67.70
29237;DHT22;16266;50.866;4.398;2023-07-13T12:34:14;24.00;82.90
29237;DHT22;16266;50.866;4.398;2023-07-13T12:41:53;21.10;99.90
29237;DHT22;16266;50.866;4.398;2023-07-13T12:44:30;20.50;99.90
29237;DHT22;16266;50.866;4.398;2023-07-13T12:46:59;20.20;99.90
29237;DHT22;16266;50.866;4.398;2023-07-13T12:49:31;20.20;99.90
29237;DHT22;16266;50.866;4.398;2023-07-13T12:52:02;20.30;99.90
29237;DHT22;16266;50.866;4.398;2023-07-13T12:54:30;20.30;99.90
29237;DHT22;16266;50.866;4.398;2023-07-13T12:56:57;20.30;99.90
29237;DHT22;16266;50.866;4.398;2023-07-13T12:59:26;20.00;99.90
29237;DHT22;16266;50.866;4.398;2023-07-13T13:01:54;20.00;99.90
29237;DHT22;16266;50.866;4.398;2023-07-13T13:04:20;19.90;99.90
29237;DHT22;16266;50.866;4.398;2023-07-13T13:06:48;19.80;99.90
29237;DHT22;16266;50.866;4.398;2023-07-13T13:09:16;19.90;99.90
29237;DHT22;16266;50.866;4.398;2023-07-13T13:11:44;20.10;99.90
29237;DHT22;16266;50.866;4.398;2023-07-13T13:14:09;20.50;99.90
29237;DHT22;16266;50.866;4.398;2023-07-13T13:16:48;20.80;99.90
29237;DHT22;16266;50.866;4.398;2023-07-13T13:19:19;21.30;99.90
29237;DHT22;16266;50.866;4.398;2023-07-13T13:21:47;22.10;99.90
29237;DHT22;16266;50.866;4.398;2023-07-13T13:24:19;22.70;99.90
29237;DHT22;16266;50.866;4.398;2023-07-13T13:26:46;22.70;99.90
29237;DHT22;16266;50.866;4.398;2023-07-13T13:29:15;22.70;99.90
29237;DHT22;16266;50.866;4.398;2023-07-13T13:31:42;22.70;99.90
29237;DHT22;16266;50.866;4.398;2023-07-13T13:34:12;22.80;99.90
29237;DHT22;16266;50.866;4.398;2023-07-13T13:36:39;23.20;99.90
29237;DHT22;16266;50.866;4.398;2023-07-13T13:39:18;23.70;99.90
29237;DHT22;16266;50.866;4.398;2023-07-13T13:41:43;24.80;99.90
29237;DHT22;16266;50.866;4.398;2023-07-13T13:44:10;25.80;99.90
29237;DHT22;16266;50.866;4.398;2023-07-13T13:46:36;27.40;99.90
29237;DHT22;16266;50.866;4.398;2023-07-13T13:49:02;28.30;99.90
29237;DHT22;16266;50.866;4.398;2023-07-13T13:51:28;29.20;99.90
29237;DHT22;16266;50.866;4.398;2023-07-13T13:53:55;30.00;99.90
29237;DHT22;16266;50.866;4.398;2023-07-13T13:56:21;29.50;98.10
29237;DHT22;16266;50.866;4.398;2023-07-13T13:58:47;29.00;95.90
29237;DHT22;16266;50.866;4.398;2023-07-13T14:01:22;29.00;98.60
29237;DHT22;16266;50.866;4.398;2023-07-13T14:03:50;28.10;96.70
29237;DHT22;16266;50.866;4.398;2023-07-13T14:06:19;27.50;97.20
29237;DHT22;16266;50.866;4.398;2023-07-13T14:08:45;27.50;96.20
29237;DHT22;16266;50.866;4.398;2023-07-13T14:11:14;28.20;96.00
29237;DHT22;16266;50.866;4.398;2023-07-13T14:13:47;28.70;93.10
29237;DHT22;16266;50.866;4.398;2023-07-13T14:16:18;28.60;89.50
29237;DHT22;16266;50.866;4.398;2023-07-13T14:18:45;28.60;89.00
29237;DHT22;16266;50.866;4.398;2023-07-13T14:21:15;28.40;89.30
29237;DHT22;16266;50.866;4.398;2023-07-13T14:23:44;28.90;87.00
29237;DHT22;16266;50.866;4.398;2023-07-13T14:26:13;29.50;77.80
29237;DHT22;16266;50.866;4.398;2023-07-13T14:28:43;29.40;82.20
29237;DHT22;16266;50.866;4.398;2023-07-13T14:31:10;29.30;72.50
29237;DHT22;16266;50.866;4.398;2023-07-13T14:33:36;28.60;73.80
29237;DHT22;16266;50.866;4.398;2023-07-13T14:36:04;27.50;78.70
29237;DHT22;16266;50.866;4.398;2023-07-13T14:38:34;27.00;82.30
29237;DHT22;16266;50.866;4.398;2023-07-13T14:41:00;27.00;88.30
29237;DHT22;16266;50.866;4.398;2023-07-13T14:43:26;26.90;88.30
29237;DHT22;16266;50.866;4.398;2023-07-13T14:45:53;27.10;76.70
29237;DHT22;16266;50.866;4.398;2023-07-13T14:48:23;27.20;80.80
29237;DHT22;16266;50.866;4.398;2023-07-13T14:50:54;27.70;71.10
29237;DHT22;16266;50.866;4.398;2023-07-13T14:53:20;27.60;66.10
29237;DHT22;16266;50.866;4.398;2023-07-13T14:55:46;27.40;66.70
29237;DHT22;16266;50.866;4.398;2023-07-13T14:58:11;27.60;68.00
29237;DHT22;16266;50.866;4.398;2023-07-13T15:00:39;27.80;69.30
29237;DHT22;16266;50.866;4.398;2023-07-13T15:03:06;27.70;68.30
29237;DHT22;16266;50.866;4.398;2023-07-13T15:05:40;27.60;69.10
29237;DHT22;16266;50.866;4.398;2023-07-13T15:08:08;27.40;69.70
29237;DHT22;16266;50.866;4.398;2023-07-13T15:10:36;27.10;69.70
29237;DHT22;16266;50.866;4.398;2023-07-13T15:13:18;27.00;71.80
29237;DHT22;16266;50.866;4.398;2023-07-13T15:15:49;26.80;69.30
29237;DHT22;16266;50.866;4.398;2023-07-13T15:18:20;26.50;71.40
29237;DHT22;16266;50.866;4.398;2023-07-13T15:20:47;26.50;69.30
29237;DHT22;16266;50.866;4.398;2023-07-13T15:23:14;26.30;71.40
29237;DHT22;16266;50.866;4.398;2023-07-13T15:25:41;26.10;70.50
29237;DHT22;16266;50.866;4.398;2023-07-13T15:28:07;25.90;67.20
29237;DHT22;16266;50.866;4.398;2023-07-13T15:30:44;25.80;72.10
29237;DHT22;16266;50.866;4.398;2023-07-13T15:33:23;25.80;69.40
29237;DHT22;16266;50.866;4.398;2023-07-13T15:35:50;25.60;73.80
29237;DHT22;16266;50.866;4.398;2023-07-13T15:40:42;25.10;75.00
29237;DHT22;16266;50.866;4.398;2023-07-13T15:43:12;25.00;76.90
29237;DHT22;16266;50.866;4.398;2023-07-13T15:45:39;25.00;77.80
29237;DHT22;16266;50.866;4.398;2023-07-13T15:48:12;25.10;78.50
29237;DHT22;16266;50.866;4.398;2023-07-13T15:50:46;25.30;79.80
29237;DHT22;16266;50.866;4.398;2023-07-13T15:53:23;25.40;80.40
29237;DHT22;16266;50.866;4.398;2023-07-13T15:55:49;25.50;79.70
29237;DHT22;16266;50.866;4.398;2023-07-13T15:58:15;25.50;82.50
29237;DHT22;16266;50.866;4.398;2023-07-13T16:00:43;25.50;80.60
29237;DHT22;16266;50.866;4.398;2023-07-13T16:03:10;25.50;82.50
29237;DHT22;16266;50.866;4.398;2023-07-13T16:05:37;25.80;83.10
29237;DHT22;16266;50.866;4.398;2023-07-13T16:08:04;25.50;67.70
29237;DHT22;16266;50.866;4.398;2023-07-13T16:10:36;25.60;66.90
29237;DHT22;16266;50.866;4.398;2023-07-13T16:13:14;25.70;65.70
29237;DHT22;16266;50.866;4.398;2023-07-13T16:15:40;25.80;65.90
29237;DHT22;16266;50.866;4.398;2023-07-13T16:18:11;25.80;66.30
29237;DHT22;16266;50.866;4.398;2023-07-13T16:20:45;25.70;63.20
29237;DHT22;16266;50.866;4.398;2023-07-13T16:23:12;25.80;63.70